Time;durP1;ratioP1;P1;durP2;ratioP2;P2;SDS_P1;SDS_P2;PMS_P1;PMS_P2;Temp;Humidity;BMP_temperature;BMP_pressure;BME280_temperature;BME280_humidity;BME280_pressure;Samples;Min_cycle;Max_cycle;Signal;HPM_P1;HPM_P2
2023/06/02 00:01:54;;;;;;;6.60;3.70;;;;;;;16.73;47.35;96325.92;109587;1263;23221;-81
2023/06/02 00:04:26;;;;;;;6.90;3.80;;;;;;;16.73;47.40;96320.72;109547;1264;39169;-81
2023/06/02 00:07:03;;;;;;;6.30;3.40;;;;;;;16.76;47.37;96323.54;109613;1269;24215;-80
2023/06/02 00:09:39;;;;;;;5.50;3.40;;;;;;;16.73;47.44;96317.83;109584;1269;22520;-79
2023/06/02 00:12:12;;;;;;;6.50;3.60;;;;;;;16.71;47.46;96316.11;109507;1266;24369;-80
2023/06/02 00:14:44;;;;;;;5.50;3.30;;;;;;;16.68;47.46;96310.91;108004;1267;2049670;-80
2023/06/02 00:17:18;;;;;;;6.50;3.50;;;;;;;16.69;47.56;96310.84;109621;1262;22508;-80
2023/06/02 00:19:50;;;;;;;6.40;3.70;;;;;;;16.65;47.68;96311.31;109581;1266;22505;-80
2023/06/02 00:22:22;;;;;;;6.30;3.20;;;;;;;16.65;47.70;96308.08;109659;1262;24174;-81
2023/06/02 00:24:53;;;;;;;7.00;3.40;;;;;;;16.62;47.84;96307.02;109521;1263;59345;-80
2023/06/02 00:27:32;;;;;;;5.40;2.80;;;;;;;16.58;48.06;96302.23;109599;1266;22528;-80
2023/06/02 00:30:07;;;;;;;4.10;3.20;;;;;;;16.50;48.16;96299.02;109577;1269;23149;-80
2023/06/02 00:32:41;;;;;;;5.70;3.50;;;;;;;16.45;48.40;96296.73;109584;1264;22508;-80
2023/06/02 00:35:13;;;;;;;6.00;3.50;;;;;;;16.38;48.51;96295.05;109552;1264;64396;-80
2023/06/02 00:37:50;;;;;;;3.80;2.70;;;;;;;16.37;48.55;96294.91;109553;1263;22531;-80
2023/06/02 00:40:23;;;;;;;6.80;3.00;;;;;;;16.36;48.73;96294.41;109597;1262;22501;-80
2023/06/02 00:42:58;;;;;;;6.30;3.10;;;;;;;16.29;48.79;96293.70;109630;1263;22518;-80
2023/06/02 00:45:32;;;;;;;6.10;2.70;;;;;;;16.29;48.80;96292.60;109581;1266;60417;-80
2023/06/02 00:48:11;;;;;;;7.30;3.20;;;;;;;16.34;48.89;96291.73;109595;1269;24225;-80
2023/06/02 00:50:45;;;;;;;5.10;3.30;;;;;;;16.39;48.78;96291.02;109541;1269;23760;-80
2023/06/02 00:53:19;;;;;;;6.90;3.40;;;;;;;16.50;48.69;96290.48;109617;1263;24061;-80
2023/06/02 00:55:55;;;;;;;6.80;3.30;;;;;;;16.59;48.49;96287.70;109436;1260;138434;-80
2023/06/02 00:58:26;;;;;;;4.60;3.00;;;;;;;16.68;48.32;96286.55;109613;1263;22503;-80
2023/06/02 01:00:59;;;;;;;5.50;3.50;;;;;;;16.77;48.11;96286.07;109611;1264;23954;-80
2023/06/02 01:03:31;;;;;;;5.00;3.70;;;;;;;16.83;47.93;96290.75;109616;1263;26416;-80
2023/06/02 01:06:02;;;;;;;5.90;3.50;;;;;;;16.84;47.88;96288.81;109503;1263;111429;-80
2023/06/02 01:08:37;;;;;;;5.00;2.90;;;;;;;16.88;47.73;96287.56;109632;1263;22545;-80
2023/06/02 01:11:10;;;;;;;6.10;3.60;;;;;;;16.92;47.58;96284.89;109558;1269;23875;-80
2023/06/02 01:13:42;;;;;;;5.00;2.90;;;;;;;16.95;47.57;96286.13;109578;1266;22507;-80
2023/06/02 01:16:16;;;;;;;4.90;2.90;;;;;;;16.91;47.66;96280.55;109634;1264;23731;-80
2023/06/02 01:18:51;;;;;;;4.50;3.00;;;;;;;16.87;47.72;96289.80;109538;1269;22513;-80
2023/06/02 01:21:28;;;;;;;6.30;3.20;;;;;;;16.80;47.92;96286.58;109617;1263;22507;-80
2023/06/02 01:23:59;;;;;;;4.80;3.30;;;;;;;16.68;48.08;96283.22;109502;1257;40642;-80
2023/06/02 01:26:35;;;;;;;6.70;3.30;;;;;;;16.56;48.18;96282.89;109565;1262;22516;-80
2023/06/02 01:29:07;;;;;;;5.60;3.10;;;;;;;16.50;48.34;96280.54;109556;1267;22505;-80
2023/06/02 01:31:48;;;;;;;6.30;3.70;;;;;;;16.49;48.64;96278.66;109626;1269;22530;-80
2023/06/02 01:34:33;;;;;;;4.80;3.10;;;;;;;16.43;48.75;96282.15;107978;1267;2043384;-81
2023/06/02 01:37:06;;;;;;;5.80;3.50;;;;;;;16.35;48.89;96284.22;109557;1269;22523;-81
2023/06/02 01:39:43;;;;;;;4.60;3.10;;;;;;;16.33;49.04;96283.02;109645;1263;24323;-81
2023/06/02 01:42:18;;;;;;;8.90;3.80;;;;;;;16.30;49.14;96281.80;109480;1269;22618;-81
2023/06/02 01:44:51;;;;;;;6.00;3.10;;;;;;;16.14;49.56;96278.96;109553;1269;46419;-81
2023/06/02 01:47:22;;;;;;;6.60;3.40;;;;;;;15.92;50.06;96281.66;109579;1266;25402;-81
2023/06/02 01:49:58;;;;;;;6.30;4.00;;;;;;;15.71;50.53;96280.21;109506;1266;22544;-81
2023/06/02 01:52:36;;;;;;;5.60;3.20;;;;;;;15.60;50.76;96282.17;109571;1263;25488;-81
2023/06/02 01:55:10;;;;;;;7.00;3.50;;;;;;;15.58;51.09;96278.16;109584;1263;49916;-81
2023/06/02 01:57:42;;;;;;;5.30;3.40;;;;;;;15.60;51.32;96281.27;109592;1247;22508;-81
2023/06/02 02:00:16;;;;;;;6.30;3.30;;;;;;;15.56;51.52;96284.97;109604;1262;22583;-81
2023/06/02 02:02:48;;;;;;;5.90;3.30;;;;;;;15.41;51.72;96280.80;109578;1247;22523;-81
2023/06/02 02:05:20;;;;;;;5.00;3.30;;;;;;;15.35;52.00;96282.87;109496;1263;44656;-81
2023/06/02 02:07:56;;;;;;;5.70;2.80;;;;;;;15.29;52.16;96275.03;109619;1266;24238;-81
2023/06/02 02:10:37;;;;;;;5.70;3.50;;;;;;;15.21;52.42;96280.70;109635;1269;22630;-81
2023/06/02 02:13:11;;;;;;;9.30;3.50;;;;;;;15.15;52.71;96280.08;109617;1267;22617;-81
2023/06/02 02:15:46;;;;;;;6.20;3.30;;;;;;;15.11;52.92;96280.36;109569;1269;39755;-81
2023/06/02 02:18:24;;;;;;;7.20;3.40;;;;;;;15.04;53.24;96278.73;109654;1269;22997;-80
2023/06/02 02:20:57;;;;;;;5.70;3.30;;;;;;;14.99;53.67;96281.50;109531;1262;22524;-81
2023/06/02 02:23:38;;;;;;;5.50;3.30;;;;;;;14.99;53.76;96283.00;109550;1263;22524;-80
2023/06/02 02:26:11;;;;;;;6.50;3.40;;;;;;;15.00;53.94;96282.37;109434;1245;26408;-81
2023/06/02 02:28:45;;;;;;;7.80;3.40;;;;;;;14.99;54.05;96285.10;109536;1269;22735;-81
2023/06/02 02:31:16;;;;;;;7.00;3.90;;;;;;;15.01;54.08;96288.67;109586;1269;22511;-81
2023/06/02 02:33:47;;;;;;;8.20;3.90;;;;;;;15.07;54.11;96288.09;109541;1263;45299;-81
2023/06/02 02:36:19;;;;;;;6.30;3.70;;;;;;;15.13;53.98;96292.58;109610;1269;22512;-81
2023/06/02 02:38:50;;;;;;;7.40;3.90;;;;;;;15.19;53.93;96292.35;109534;1269;22844;-81
2023/06/02 02:41:21;;;;;;;5.10;3.10;;;;;;;15.20;54.00;96295.85;109602;1269;22523;-81
2023/06/02 02:43:52;;;;;;;6.00;3.50;;;;;;;15.12;54.03;96297.55;109541;1269;47530;-81
2023/06/02 02:46:23;;;;;;;5.90;3.60;;;;;;;15.06;53.93;96301.73;109619;1269;22542;-80
2023/06/02 02:48:54;;;;;;;6.60;3.80;;;;;;;15.05;53.90;96308.52;109582;1263;22566;-81
2023/06/02 02:51:28;;;;;;;6.60;3.90;;;;;;;15.08;54.08;96309.80;109582;1269;22518;-81
2023/06/02 02:53:59;;;;;;;9.30;4.10;;;;;;;15.07;54.01;96312.05;109544;1262;70857;-81
2023/06/02 02:56:30;;;;;;;7.30;4.00;;;;;;;15.05;54.14;96313.27;109618;1263;24005;-81
2023/06/02 02:59:04;;;;;;;6.80;4.10;;;;;;;15.02;54.25;96315.03;109571;1269;22562;-81
2023/06/02 03:01:35;;;;;;;5.80;3.60;;;;;;;15.00;54.41;96320.73;109611;1263;22526;-81
2023/06/02 03:04:08;;;;;;;7.90;3.90;;;;;;;14.95;54.66;96320.31;109582;1268;46564;-81
2023/06/02 03:06:43;;;;;;;7.70;4.00;;;;;;;14.95;54.65;96324.71;109571;1246;22527;-81
2023/06/02 03:09:14;;;;;;;7.30;3.80;;;;;;;14.88;54.64;96330.09;109501;1264;24205;-81
2023/06/02 03:11:46;;;;;;;7.20;4.00;;;;;;;14.89;54.69;96328.67;109638;1263;23963;-81
2023/06/02 03:14:17;;;;;;;5.60;3.70;;;;;;;14.87;54.80;96329.75;109491;1269;49706;-81
2023/06/02 03:16:48;;;;;;;5.50;3.80;;;;;;;14.78;54.82;96334.31;109637;1269;22564;-81
2023/06/02 03:19:21;;;;;;;5.80;4.10;;;;;;;14.61;54.95;96337.05;109588;1269;22513;-80
2023/06/02 03:21:52;;;;;;;8.10;4.10;;;;;;;14.46;55.37;96338.52;109572;1263;22514;-81
2023/06/02 03:24:23;;;;;;;8.40;4.20;;;;;;;14.32;55.77;96340.59;109521;1262;47318;-81
2023/06/02 03:26:55;;;;;;;7.50;4.00;;;;;;;14.26;56.15;96354.35;109583;1269;25242;-81
2023/06/02 03:29:26;;;;;;;8.40;3.80;;;;;;;14.30;56.36;96353.88;109585;1269;22561;-81
2023/06/02 03:31:58;;;;;;;6.60;3.80;;;;;;;14.36;56.46;96354.86;109646;1269;22617;-81
2023/06/02 03:34:29;;;;;;;7.50;4.30;;;;;;;14.45;56.71;96354.85;109614;1269;40730;-81
2023/06/02 03:37:01;;;;;;;6.60;3.60;;;;;;;14.47;56.55;96349.55;109495;1269;22511;-81
2023/06/02 03:39:35;;;;;;;6.60;4.10;;;;;;;14.48;56.55;96349.96;109550;1269;22526;-80
2023/06/02 03:42:07;;;;;;;6.40;3.70;;;;;;;14.59;56.84;96356.66;109481;1263;22511;-81
2023/06/02 03:44:38;;;;;;;7.50;4.20;;;;;;;14.69;57.19;96358.85;109588;1263;60631;-80
2023/06/02 03:47:09;;;;;;;7.60;4.20;;;;;;;14.79;57.37;96360.66;109519;1269;23785;-81
2023/06/02 03:49:40;;;;;;;7.00;3.60;;;;;;;14.90;57.72;96363.70;109604;1262;22501;-81
2023/06/02 03:52:11;;;;;;;8.30;4.00;;;;;;;14.92;57.78;96368.13;109541;1269;25459;-81
2023/06/02 03:54:42;;;;;;;6.00;4.00;;;;;;;14.96;57.78;96367.83;109542;1266;46879;-81
2023/06/02 03:57:18;;;;;;;7.70;4.10;;;;;;;14.99;57.79;96368.67;109601;1269;25876;-81
2023/06/02 03:59:49;;;;;;;5.70;3.90;;;;;;;15.03;57.82;96368.64;109617;1269;22528;-81
2023/06/02 04:02:20;;;;;;;5.20;3.80;;;;;;;15.06;57.91;96368.16;109602;1263;22518;-81
2023/06/02 04:04:51;;;;;;;5.50;4.00;;;;;;;15.10;57.99;96363.61;109574;1260;43987;-81
2023/06/02 04:07:22;;;;;;;6.20;3.70;;;;;;;15.13;58.17;96366.34;109412;1262;23152;-81
2023/06/02 04:09:53;;;;;;;6.80;4.10;;;;;;;15.02;58.23;96365.82;109397;1262;22540;-81
2023/06/02 04:12:25;;;;;;;6.10;4.00;;;;;;;14.88;58.49;96359.86;109385;1262;23791;-81
2023/06/02 04:14:57;;;;;;;6.20;3.90;;;;;;;14.75;59.03;96365.46;109371;1270;46254;-81
2023/06/02 04:17:28;;;;;;;7.60;5.10;;;;;;;14.73;59.66;96368.88;109345;1264;22528;-81
2023/06/02 04:19:59;;;;;;;7.60;5.30;;;;;;;14.78;60.15;96367.20;109408;1270;22547;-81
2023/06/02 04:22:30;;;;;;;7.60;4.00;;;;;;;14.88;60.34;96370.66;109388;1270;22507;-81
2023/06/02 04:25:02;;;;;;;7.80;4.40;;;;;;;14.99;60.54;96368.98;109303;1267;50943;-81
2023/06/02 04:27:33;;;;;;;9.50;4.50;;;;;;;15.12;60.52;96371.17;109390;1270;23044;-81
2023/06/02 04:30:04;;;;;;;9.70;4.70;;;;;;;15.26;60.50;96375.69;109378;1270;22509;-81
2023/06/02 04:32:35;;;;;;;6.20;4.30;;;;;;;15.40;60.61;96379.08;109403;1270;22512;-81
2023/06/02 04:35:08;;;;;;;9.10;4.40;;;;;;;15.58;60.99;96373.92;109334;1270;23013;-81
2023/06/02 04:37:39;;;;;;;7.80;4.90;;;;;;;15.75;60.84;96373.84;109413;1263;22504;-81
2023/06/02 04:40:11;;;;;;;8.30;4.30;;;;;;;15.90;60.90;96371.05;109369;1265;22557;-81
2023/06/02 04:42:42;;;;;;;8.20;5.10;;;;;;;16.04;60.79;96370.25;109408;1248;22585;-81
2023/06/02 04:45:15;;;;;;;8.00;4.60;;;;;;;16.21;60.84;96369.55;109337;1270;22548;-81
2023/06/02 04:47:47;;;;;;;9.70;5.60;;;;;;;16.35;60.61;96372.96;109396;1270;22519;-81
2023/06/02 04:50:19;;;;;;;7.70;4.60;;;;;;;16.47;60.21;96374.75;109416;1270;22500;-81
2023/06/02 04:52:50;;;;;;;10.60;5.20;;;;;;;16.60;60.35;96374.49;109365;1270;22513;-81
2023/06/02 04:55:22;;;;;;;7.60;4.50;;;;;;;16.76;60.70;96375.30;109360;1270;22571;-81
2023/06/02 04:57:53;;;;;;;6.50;4.20;;;;;;;16.89;60.82;96378.40;109410;1262;22514;-81
2023/06/02 05:00:24;;;;;;;7.00;4.30;;;;;;;17.04;60.76;96375.02;109358;1270;22601;-81
2023/06/02 05:02:55;;;;;;;7.10;4.30;;;;;;;17.16;60.38;96378.30;109370;1270;22526;-82
2023/06/02 05:05:26;;;;;;;7.40;4.40;;;;;;;17.28;59.80;96377.27;109407;1264;22501;-81
2023/06/02 05:08:00;;;;;;;9.00;4.60;;;;;;;17.39;59.29;96379.83;109620;1258;22515;-81
2023/06/02 05:10:30;;;;;;;5.40;4.00;;;;;;;17.59;59.05;96381.62;109591;1263;23224;-81
2023/06/02 05:13:02;;;;;;;8.20;4.30;;;;;;;18.06;59.36;96381.93;109575;1262;25252;-82
2023/06/02 05:15:33;;;;;;;10.10;5.30;;;;;;;19.24;59.64;96385.98;109593;1269;25269;-82
2023/06/02 05:18:04;;;;;;;9.50;4.70;;;;;;;20.72;58.38;96383.52;109601;1269;22764;-82
2023/06/02 05:20:35;;;;;;;9.50;5.10;;;;;;;22.18;56.35;96381.54;109657;1263;22698;-82
2023/06/02 05:23:05;;;;;;;7.90;4.80;;;;;;;23.26;53.63;96384.77;109584;1269;22502;-82
2023/06/02 05:25:37;;;;;;;7.40;5.10;;;;;;;24.18;51.91;96382.27;109590;1263;23330;-82
2023/06/02 05:28:08;;;;;;;8.20;5.00;;;;;;;25.09;50.17;96383.13;109559;1269;22501;-82
2023/06/02 05:30:39;;;;;;;9.20;5.00;;;;;;;25.85;48.01;96384.95;109606;1263;22863;-82
2023/06/02 05:33:11;;;;;;;8.80;5.40;;;;;;;26.19;46.36;96388.63;109635;1269;24269;-82
2023/06/02 05:35:42;;;;;;;8.10;5.10;;;;;;;26.40;45.39;96387.60;109548;1261;22504;-82
2023/06/02 05:38:17;;;;;;;11.20;5.90;;;;;;;26.55;43.73;96391.11;109601;1263;22504;-82
2023/06/02 05:40:48;;;;;;;8.00;4.90;;;;;;;26.64;43.14;96388.33;109586;1263;24182;-82
2023/06/02 05:43:19;;;;;;;11.50;5.60;;;;;;;27.23;42.61;96392.42;109623;1263;22590;-82
2023/06/02 05:45:52;;;;;;;8.40;4.90;;;;;;;27.88;41.74;96398.87;109522;1263;55401;-83
2023/06/02 05:48:23;;;;;;;9.40;5.40;;;;;;;28.15;40.70;96397.96;109639;1269;22616;-82
2023/06/02 05:50:54;;;;;;;7.60;4.70;;;;;;;28.47;40.08;96396.39;109581;1263;22519;-82
2023/06/02 05:53:25;;;;;;;10.60;5.60;;;;;;;28.84;39.67;96399.02;109597;1269;26427;-83
2023/06/02 05:55:57;;;;;;;8.00;4.80;;;;;;;29.42;39.17;96394.42;109588;1264;55995;-83
2023/06/02 05:58:28;;;;;;;8.30;4.70;;;;;;;29.72;37.53;96391.62;109318;1269;24251;-83
2023/06/02 06:00:59;;;;;;;8.80;4.50;;;;;;;29.60;36.26;96392.45;109558;1269;24253;-83
2023/06/02 06:03:30;;;;;;;8.50;5.00;;;;;;;29.05;35.62;96397.27;109613;1263;22541;-83
2023/06/02 06:06:05;;;;;;;9.50;4.40;;;;;;;28.85;35.16;96398.77;109569;1266;35144;-83
2023/06/02 06:08:38;;;;;;;14.00;4.40;;;;;;;28.46;34.64;96402.09;109625;1261;23433;-82
2023/06/02 06:11:10;;;;;;;7.40;4.30;;;;;;;28.21;34.69;96401.91;109604;1266;25262;-82
2023/06/02 06:13:41;;;;;;;6.90;4.20;;;;;;;28.02;34.66;96407.53;109649;1269;22785;-82
2023/06/02 06:16:12;;;;;;;6.00;4.30;;;;;;;27.98;34.53;96408.33;109559;1267;53063;-83
2023/06/02 06:18:44;;;;;;;7.40;4.50;;;;;;;27.81;34.01;96410.34;109576;1269;22556;-82
2023/06/02 06:21:15;;;;;;;7.20;4.20;;;;;;;27.80;34.58;96412.45;109618;1269;23156;-82
2023/06/02 06:23:47;;;;;;;8.70;4.20;;;;;;;28.35;35.18;96415.00;109610;1269;25284;-83
2023/06/02 06:26:19;;;;;;;8.60;4.60;;;;;;;28.12;34.19;96418.92;109657;1262;22615;-80
2023/06/02 06:28:50;;;;;;;8.60;4.50;;;;;;;27.53;34.64;96416.33;109590;1269;22523;-81
2023/06/02 06:31:24;;;;;;;8.60;4.70;;;;;;;27.53;35.27;96421.92;109653;1263;22541;-80
2023/06/02 06:33:55;;;;;;;9.20;5.10;;;;;;;27.96;35.14;96426.63;109545;1257;49468;-80
2023/06/02 06:36:28;;;;;;;8.70;4.90;;;;;;;27.97;35.18;96428.65;109576;1266;23758;-80
2023/06/02 06:38:59;;;;;;;8.10;4.30;;;;;;;28.03;34.63;96430.64;109330;1269;25558;-79
2023/06/02 06:41:31;;;;;;;7.30;4.10;;;;;;;27.84;34.59;96431.97;109269;1262;22536;-79
2023/06/02 06:44:02;;;;;;;7.80;4.40;;;;;;;27.82;34.35;96429.33;109298;1263;25132;-79
2023/06/02 06:46:33;;;;;;;9.40;4.90;;;;;;;27.45;34.42;96430.10;109246;1269;24202;-79
2023/06/02 06:49:04;;;;;;;10.80;5.10;;;;;;;27.55;34.87;96430.24;109258;1262;24225;-80
2023/06/02 06:51:36;;;;;;;8.40;5.00;;;;;;;27.49;35.11;96433.85;109340;1269;22495;-79
2023/06/02 06:54:07;;;;;;;10.80;5.40;;;;;;;27.69;35.05;96436.61;109318;1263;50753;-80
2023/06/02 06:56:38;;;;;;;8.90;4.70;;;;;;;27.66;34.67;96437.70;109283;1266;22627;-79
2023/06/02 06:59:09;;;;;;;8.20;4.60;;;;;;;27.32;34.53;96436.52;109241;1269;22508;-79
2023/06/02 07:01:43;;;;;;;10.80;5.40;;;;;;;27.21;35.18;96437.47;109292;1269;23410;-79
2023/06/02 07:04:14;;;;;;;10.70;4.70;;;;;;;27.56;35.67;96438.73;109217;1263;31075;-79
2023/06/02 07:06:45;;;;;;;6.30;4.90;;;;;;;28.00;36.00;96440.40;109275;1263;22500;-79
2023/06/02 07:09:16;;;;;;;8.20;5.20;;;;;;;28.17;35.24;96442.89;109626;1266;22492;-80
2023/06/02 07:11:47;;;;;;;11.80;4.60;;;;;;;28.08;34.90;96443.01;109313;1262;25265;-79
2023/06/02 07:14:18;;;;;;;7.90;5.30;;;;;;;27.84;34.06;96443.34;109243;1268;42272;-79
2023/06/02 07:16:54;;;;;;;9.30;5.50;;;;;;;27.62;34.30;96438.09;109282;1266;22589;-79
2023/06/02 07:19:25;;;;;;;9.70;5.10;;;;;;;27.52;34.12;96438.04;109837;1267;22548;-80
2023/06/02 07:21:56;;;;;;;8.30;5.00;;;;;;;27.37;33.92;96441.17;109838;1262;22629;-80
2023/06/02 07:24:27;;;;;;;7.60;4.70;;;;;;;27.34;33.97;96440.17;109637;1263;69617;-79
2023/06/02 07:26:59;;;;;;;7.70;4.20;;;;;;;27.03;33.81;96441.89;109400;1262;22507;-82
2023/06/02 07:29:31;;;;;;;7.20;4.20;;;;;;;26.61;33.18;96444.11;109642;1260;22528;-81
2023/06/02 07:32:03;;;;;;;8.60;4.50;;;;;;;26.23;33.56;96442.52;109618;1266;22541;-81
2023/06/02 07:34:34;;;;;;;10.50;4.70;;;;;;;25.92;33.66;96441.63;109553;1263;53496;-82
2023/06/02 07:37:06;;;;;;;9.00;4.80;;;;;;;25.40;33.75;96441.19;109609;1269;22527;-83
2023/06/02 07:39:37;;;;;;;7.50;5.00;;;;;;;25.21;34.62;96439.36;109648;1263;22616;-83
2023/06/02 07:42:11;;;;;;;8.70;4.80;;;;;;;25.31;34.85;96440.96;109605;1262;22519;-82
2023/06/02 07:44:43;;;;;;;8.50;4.70;;;;;;;25.39;35.06;96439.55;109586;1263;94671;-82
2023/06/02 07:47:14;;;;;;;8.00;4.80;;;;;;;25.55;35.31;96445.77;109665;1263;22539;-81
2023/06/02 07:49:46;;;;;;;8.90;4.70;;;;;;;25.61;35.04;96446.27;109620;1263;26592;-83
2023/06/02 07:52:17;;;;;;;10.10;4.50;;;;;;;25.36;35.07;96448.60;109564;1263;22511;-84
2023/06/02 07:54:49;;;;;;;7.40;4.50;;;;;;;25.39;35.56;96445.52;109536;1247;52867;-80
2023/06/02 07:57:21;;;;;;;10.70;5.10;;;;;;;25.37;35.67;96439.94;109368;1269;24178;-80
2023/06/02 07:59:55;;;;;;;7.60;4.20;;;;;;;25.44;35.63;96442.98;109575;1266;25278;-81
2023/06/02 08:02:26;;;;;;;10.90;4.70;;;;;;;25.09;35.21;96441.96;109674;1269;22518;-81
2023/06/02 08:04:57;;;;;;;10.00;5.00;;;;;;;24.92;35.65;96434.22;109587;1263;60127;-80
2023/06/02 08:07:28;;;;;;;6.90;4.60;;;;;;;24.83;36.77;96437.95;109673;1263;22551;-81
2023/06/02 08:10:00;;;;;;;9.10;5.00;;;;;;;25.02;36.16;96439.50;109351;1265;25281;-81
2023/06/02 08:12:31;;;;;;;9.70;4.90;;;;;;;24.77;35.86;96444.64;109581;1264;23823;-81
2023/06/02 08:15:02;;;;;;;7.10;4.60;;;;;;;24.54;35.97;96442.79;109533;1269;38379;-82
2023/06/02 08:17:34;;;;;;;9.10;4.70;;;;;;;24.35;36.59;96446.09;109572;1263;22532;-82
2023/06/02 08:20:09;;;;;;;9.90;4.90;;;;;;;24.49;36.84;96448.25;109421;1269;217720;-83
2023/06/02 08:22:41;;;;;;;12.50;5.00;;;;;;;24.40;36.05;96449.61;109686;1269;22459;-83
2023/06/02 08:25:13;;;;;;;10.70;5.30;;;;;;;23.93;36.09;96459.04;109488;1262;140518;-83
2023/06/02 08:27:45;;;;;;;11.20;5.20;;;;;;;23.62;36.57;96462.20;109652;1265;22531;-83
2023/06/02 08:30:17;;;;;;;14.00;6.10;;;;;;;23.69;37.31;96463.39;109576;1269;22564;-83
2023/06/02 08:32:50;;;;;;;7.20;5.10;;;;;;;23.63;36.95;96465.56;109618;1264;22553;-84
2023/06/02 08:35:22;;;;;;;9.30;5.00;;;;;;;23.63;37.35;96465.46;109284;1257;115672;-83
2023/06/02 08:37:55;;;;;;;12.70;5.90;;;;;;;23.54;37.45;96464.02;109613;1269;22547;-83
2023/06/02 08:40:35;;;;;;;9.10;5.30;;;;;;;23.47;38.35;96460.11;109405;1269;22662;-83
2023/06/02 08:43:09;;;;;;;11.20;5.90;;;;;;;23.63;38.50;96463.23;109609;1265;24329;-83
2023/06/02 08:45:42;;;;;;;10.50;6.00;;;;;;;23.45;37.75;96456.52;109530;1263;47181;-82
2023/06/02 08:48:17;;;;;;;10.90;6.00;;;;;;;22.97;38.43;96452.86;109607;1263;22501;-81
2023/06/02 08:50:53;;;;;;;10.20;6.00;;;;;;;22.84;38.96;96456.67;109623;1262;22565;-82
2023/06/02 08:53:26;;;;;;;11.80;6.20;;;;;;;22.82;39.29;96455.02;109587;1262;26434;-82
2023/06/02 08:55:57;;;;;;;10.20;6.30;;;;;;;22.65;39.49;96455.25;109507;1263;75360;-82
2023/06/02 08:58:31;;;;;;;10.50;6.50;;;;;;;22.47;39.66;96446.06;109593;1269;22611;-82
2023/06/02 09:01:05;;;;;;;14.00;6.40;;;;;;;22.22;39.99;96450.67;109604;1269;22601;-81
2023/06/02 09:03:36;;;;;;;186.80;32.10;;;;;;;22.13;40.67;96450.83;109583;1263;22505;-80
2023/06/02 09:06:25;;;;;;;40.00;10.20;;;;;;;22.14;40.70;96451.08;109554;1266;104781;-80
2023/06/02 09:08:58;;;;;;;16.90;7.10;;;;;;;21.93;40.76;96448.40;109573;1269;22514;-81
2023/06/02 09:11:32;;;;;;;112.60;19.30;;;;;;;21.75;41.44;96452.74;109652;1266;22959;-84
2023/06/02 09:14:20;;;;;;;12.80;7.50;;;;;;;21.83;42.26;96447.66;109325;1256;45464;-84
2023/06/02 09:16:55;;;;;;;10.60;6.60;;;;;;;22.02;42.78;96443.48;109648;1269;22859;-83
2023/06/02 09:19:48;;;;;;;16.30;7.60;;;;;;;21.93;42.03;96442.84;109590;1267;24174;-83
2023/06/02 09:22:28;;;;;;;19.40;7.60;;;;;;;21.60;42.40;96438.23;109639;1263;24199;-83
2023/06/02 09:25:25;;;;;;;85.80;17.10;;;;;;;21.45;42.48;96446.39;109218;1255;100424;-83
2023/06/02 09:28:03;;;;;;;12.20;7.70;;;;;;;21.23;42.76;96445.88;109532;1269;22540;-83
2023/06/02 09:30:44;;;;;;;11.20;7.40;;;;;;;21.35;43.70;96446.16;109573;1246;22501;-83
2023/06/02 09:33:37;;;;;;;12.00;8.00;;;;;;;21.51;43.51;96449.59;109644;1263;22649;-83
2023/06/02 09:36:29;;;;;;;14.10;8.50;;;;;;;21.53;43.68;96450.58;105360;1263;5370678;-83
2023/06/02 09:39:19;;;;;;;12.40;8.00;;;;;;;21.62;43.98;96448.37;109554;1263;22513;-83
2023/06/02 09:41:58;;;;;;;15.80;8.70;;;;;;;21.55;43.75;96448.77;109568;1263;25281;-83
2023/06/02 09:44:53;;;;;;;10.60;7.10;;;;;;;21.52;44.15;96449.70;109445;1269;57818;-83
2023/06/02 09:47:48;;;;;;;12.80;8.10;;;;;;;21.53;44.34;96440.79;109484;1268;22557;-83
2023/06/02 09:50:36;;;;;;;10.90;6.30;;;;;;;21.56;44.11;96440.02;109576;1269;25258;-83
2023/06/02 09:53:11;;;;;;;12.90;7.80;;;;;;;21.36;43.57;96444.57;109594;1263;22526;-83
2023/06/02 09:55:47;;;;;;;12.30;7.50;;;;;;;21.06;43.90;96454.80;109528;1269;57111;-83
2023/06/02 09:58:23;;;;;;;11.60;8.20;;;;;;;21.07;44.75;96446.11;109584;1269;22555;-83
2023/06/02 10:01:01;;;;;;;18.00;7.70;;;;;;;21.20;44.91;96448.11;109577;1264;23987;-83
2023/06/02 10:03:33;;;;;;;15.60;8.10;;;;;;;21.29;44.75;96455.68;109547;1266;25298;-83
2023/06/02 10:06:15;;;;;;;14.30;7.50;;;;;;;21.25;44.78;96456.42;109516;1262;62326;-83
2023/06/02 10:12:34;;;;;;;11.40;7.80;;;;;;;21.62;45.01;96446.45;109597;1269;22508;-82
2023/06/02 10:15:53;;;;;;;10.70;6.30;;;;;;;21.73;44.95;96449.06;109535;1260;53645;-83
2023/06/02 10:18:42;;;;;;;12.00;8.00;;;;;;;21.70;44.73;96451.25;109539;1269;25236;-83
2023/06/02 10:21:22;;;;;;;10.60;7.80;;;;;;;21.64;44.80;96449.03;109571;1263;25403;-83
2023/06/02 10:24:06;;;;;;;19.00;7.60;;;;;;;21.65;44.93;96449.28;109557;1263;22555;-84
2023/06/02 10:26:59;;;;;;;9.60;6.90;;;;;;;21.82;44.93;96446.71;109569;1263;22682;-83
2023/06/02 10:29:37;;;;;;;18.40;8.90;;;;;;;22.04;45.03;96452.80;109549;1266;25233;-83
2023/06/02 10:32:27;;;;;;;15.10;8.00;;;;;;;22.15;44.81;96449.70;109574;1269;22765;-83
2023/06/02 10:35:14;;;;;;;14.30;7.70;;;;;;;22.08;44.39;96456.51;109492;1263;97546;-83
2023/06/02 10:37:45;;;;;;;12.20;6.70;;;;;;;21.97;44.06;96456.80;109552;1266;22538;-83
2023/06/02 10:40:21;;;;;;;11.70;7.00;;;;;;;21.81;44.24;96455.86;109560;1267;24207;-83
2023/06/02 10:43:13;;;;;;;16.10;7.10;;;;;;;21.72;44.74;96456.61;109581;1266;25313;-82
2023/06/02 10:45:45;;;;;;;11.30;6.80;;;;;;;21.77;44.42;96461.02;109553;1269;48623;-83
2023/06/02 10:48:37;;;;;;;15.90;7.00;;;;;;;21.77;44.64;96459.17;109687;1269;23694;-84
2023/06/02 10:52:01;;;;;;;;;;;;;;;;;;;;;
2023/06/02 10:55:16;;;;;;;13.70;7.00;;;;;;;21.96;45.01;96462.48;107788;1269;1811203;-83
2023/06/02 10:57:58;;;;;;;13.70;6.90;;;;;;;22.19;45.59;96457.42;109161;1263;23773;-84
2023/06/02 11:00:52;;;;;;;10.30;6.20;;;;;;;22.34;45.29;96463.10;109570;1257;22532;-83
2023/06/02 11:03:34;;;;;;;11.40;7.30;;;;;;;22.28;44.32;96462.45;109613;1266;22679;-83
2023/06/02 11:06:25;;;;;;;9.20;6.80;;;;;;;22.12;44.31;96467.86;108342;1263;1780703;-82
2023/06/02 11:09:16;;;;;;;16.20;7.00;;;;;;;21.99;44.20;96461.86;109645;1266;24155;-82
2023/06/02 11:11:55;;;;;;;11.40;6.80;;;;;;;22.02;45.01;96458.52;109581;1269;22564;-83
2023/06/02 11:14:27;;;;;;;12.30;6.80;;;;;;;22.18;45.06;96460.50;109586;1269;65277;-82
2023/06/02 11:17:32;;;;;;;9.60;6.90;;;;;;;22.22;44.75;96452.98;109549;1262;22683;-83
2023/06/02 11:20:04;;;;;;;13.20;7.10;;;;;;;22.14;44.96;96461.43;109680;1269;23895;-83
2023/06/02 11:22:37;;;;;;;12.80;7.00;;;;;;;22.10;45.01;96462.04;109521;1269;22508;-82
2023/06/02 11:25:11;;;;;;;9.10;6.30;;;;;;;21.89;44.30;96466.83;109529;1269;45163;-82
2023/06/02 11:27:44;;;;;;;160.20;29.90;;;;;;;21.47;44.26;96472.39;109544;1269;24339;-82
2023/06/02 11:30:17;;;;;;;20.00;8.10;;;;;;;21.08;44.76;96475.48;109570;1268;22518;-82
2023/06/02 11:32:51;;;;;;;15.30;7.10;;;;;;;20.91;45.12;96471.46;109555;1269;25258;-82
2023/06/02 11:35:27;;;;;;;121.50;22.60;;;;;;;20.78;45.04;96470.20;109459;1266;61115;-82
2023/06/02 11:38:08;;;;;;;26.00;9.70;;;;;;;20.65;45.86;96472.27;109551;1266;23553;-83
2023/06/02 11:40:39;;;;;;;18.20;7.60;;;;;;;20.68;46.60;96466.98;109555;1269;22521;-82
2023/06/02 11:43:10;;;;;;;11.40;7.30;;;;;;;20.78;46.47;96470.27;109540;1269;23118;-82
2023/06/02 11:45:41;;;;;;;16.40;9.10;;;;;;;20.72;46.09;96469.69;109547;1263;56490;-82
2023/06/02 11:48:13;;;;;;;12.90;7.80;;;;;;;20.55;46.14;96481.88;109550;1257;22602;-83
2023/06/02 11:50:53;;;;;;;17.10;8.10;;;;;;;20.50;46.18;96482.10;109529;1247;22565;-82
2023/06/02 11:53:24;;;;;;;13.40;7.40;;;;;;;20.31;46.18;96481.68;109567;1263;22520;-83
2023/06/02 11:55:56;;;;;;;11.90;7.30;;;;;;;20.17;46.64;96481.07;109513;1269;48270;-82
2023/06/02 11:58:29;;;;;;;17.30;7.30;;;;;;;20.05;46.58;96482.57;109636;1266;25288;-82
2023/06/02 12:01:14;;;;;;;17.50;9.10;;;;;;;19.96;47.16;96483.99;109613;1263;22527;-81
2023/06/02 12:04:03;;;;;;;15.10;8.20;;;;;;;20.22;47.83;96486.59;109635;1266;22531;-82